Terminal Aerodrome Forecast
Issued by NWS

Home | Current Version | Previous Version | Graphics & Text | Print | Product List | Glossary On
Versions: 1 2 3 4 5 6 7 8 9 10 11 12 13 14
000
FTUS42 KMHX 250521
TAFISO
TAF
KISO 250521Z 2506/2606 00000KT P6SM BKN003 OVC090
     FM251200 31005KT P6SM SCT025 BKN200
     FM251900 33006KT P6SM SCT025 BKN045
     FM260300 VRB03KT P6SM SCT100
      AMD LTD TO CLD VIS AND WIND=

USA.gov is the U.S. government's official web portal to all federal, state and local government web resources and services.